sensor_id;sensor_type;location;lat;lon;timestamp;pressure;altitude;pressure_sealevel;temperature;humidity
62710;BME280;48770;51.624;5.886;2023-07-31T00:02:16;100899.97;;;24.53;46.29
62710;BME280;48770;51.624;5.886;2023-07-31T00:04:42;100902.75;;;24.53;46.67
62710;BME280;48770;51.624;5.886;2023-07-31T00:07:07;100900.75;;;24.53;46.70
62710;BME280;48770;51.624;5.886;2023-07-31T00:09:33;100897.16;;;24.53;46.62
62710;BME280;48770;51.624;5.886;2023-07-31T00:11:58;100882.38;;;24.52;46.77
62710;BME280;48770;51.624;5.886;2023-07-31T00:14:24;100893.56;;;24.52;46.65
62710;BME280;48770;51.624;5.886;2023-07-31T00:16:49;100894.38;;;24.53;46.72
62710;BME280;48770;51.624;5.886;2023-07-31T00:19:14;100894.38;;;24.53;46.65
62710;BME280;48770;51.624;5.886;2023-07-31T00:21:40;100887.97;;;24.52;46.21
62710;BME280;48770;51.624;5.886;2023-07-31T00:24:05;100898.34;;;24.52;46.38
62710;BME280;48770;51.624;5.886;2023-07-31T00:26:30;100891.94;;;24.51;46.40
62710;BME280;48770;51.624;5.886;2023-07-31T00:28:55;100903.94;;;24.52;46.50
62710;BME280;48770;51.624;5.886;2023-07-31T00:31:21;100900.34;;;24.51;46.37
62710;BME280;48770;51.624;5.886;2023-07-31T00:33:46;100894.75;;;24.51;46.73
62710;BME280;48770;51.624;5.886;2023-07-31T00:36:11;100897.53;;;24.51;46.64
62710;BME280;48770;51.624;5.886;2023-07-31T00:38:36;100899.53;;;24.51;46.64
62710;BME280;48770;51.624;5.886;2023-07-31T00:41:02;100896.72;;;24.51;46.51
62710;BME280;48770;51.624;5.886;2023-07-31T00:43:27;100899.53;;;24.51;46.46
62710;BME280;48770;51.624;5.886;2023-07-31T00:45:52;100885.56;;;24.51;46.65
62710;BME280;48770;51.624;5.886;2023-07-31T00:48:18;100877.97;;;24.51;46.37
62710;BME280;48770;51.624;5.886;2023-07-31T00:50:43;100882.75;;;24.51;46.38
62710;BME280;48770;51.624;5.886;2023-07-31T00:53:09;100879.97;;;24.51;46.29
62710;BME280;48770;51.624;5.886;2023-07-31T00:55:34;100890.34;;;24.50;46.54
62710;BME280;48770;51.624;5.886;2023-07-31T00:57:59;100889.97;;;24.52;46.52
62710;BME280;48770;51.624;5.886;2023-07-31T01:00:25;100879.16;;;24.50;46.52
62710;BME280;48770;51.624;5.886;2023-07-31T01:02:50;100881.94;;;24.50;46.53
62710;BME280;48770;51.624;5.886;2023-07-31T01:05:18;100879.97;;;24.51;46.34
62710;BME280;48770;51.624;5.886;2023-07-31T01:08:05;100868.34;;;24.49;46.23
62710;BME280;48770;51.624;5.886;2023-07-31T01:10:43;100871.16;;;24.49;46.63
62710;BME280;48770;51.624;5.886;2023-07-31T01:13:10;100870.34;;;24.48;46.46
62710;BME280;48770;51.624;5.886;2023-07-31T01:15:36;100876.75;;;24.49;46.43
62710;BME280;48770;51.624;5.886;2023-07-31T01:18:01;100869.16;;;24.49;46.39
62710;BME280;48770;51.624;5.886;2023-07-31T01:20:29;100864.38;;;24.50;46.58
62710;BME280;48770;51.624;5.886;2023-07-31T01:23:05;100866.38;;;24.49;46.33
62710;BME280;48770;51.624;5.886;2023-07-31T01:29:18;100860.66;;;24.42;46.34
62710;BME280;48770;51.624;5.886;2023-07-31T01:31:48;100861.88;;;24.45;46.57
62710;BME280;48770;51.624;5.886;2023-07-31T01:34:17;100872.72;;;24.46;46.57
62710;BME280;48770;51.624;5.886;2023-07-31T01:36:43;100872.72;;;24.46;46.29
62710;BME280;48770;51.624;5.886;2023-07-31T01:39:08;100870.72;;;24.47;46.62
62710;BME280;48770;51.624;5.886;2023-07-31T01:41:34;100867.94;;;24.47;46.51
62710;BME280;48770;51.624;5.886;2023-07-31T01:44:00;100867.94;;;24.47;46.34
62710;BME280;48770;51.624;5.886;2023-07-31T01:46:25;100862.34;;;24.47;46.29
62710;BME280;48770;51.624;5.886;2023-07-31T01:48:50;100859.53;;;24.47;46.35
62710;BME280;48770;51.624;5.886;2023-07-31T01:51:16;100859.53;;;24.47;46.46
62710;BME280;48770;51.624;5.886;2023-07-31T01:53:41;100860.69;;;24.46;46.48
62710;BME280;48770;51.624;5.886;2023-07-31T01:56:06;100857.91;;;24.46;46.60
62710;BME280;48770;51.624;5.886;2023-07-31T01:58:32;100848.72;;;24.45;46.57
62710;BME280;48770;51.624;5.886;2023-07-31T02:00:57;100848.72;;;24.45;46.36
62710;BME280;48770;51.624;5.886;2023-07-31T02:03:22;100853.16;;;24.46;46.16
62710;BME280;48770;51.624;5.886;2023-07-31T02:05:48;100842.31;;;24.45;46.48
62710;BME280;48770;51.624;5.886;2023-07-31T02:08:14;100844.75;;;24.46;46.39
62710;BME280;48770;51.624;5.886;2023-07-31T02:10:40;100839.97;;;24.47;46.46
62710;BME280;48770;51.624;5.886;2023-07-31T02:13:05;100849.50;;;24.46;46.48
62710;BME280;48770;51.624;5.886;2023-07-31T02:15:31;100835.53;;;24.46;46.39
62710;BME280;48770;51.624;5.886;2023-07-31T02:17:56;100829.16;;;24.45;46.23
62710;BME280;48770;51.624;5.886;2023-07-31T02:20:22;100831.13;;;24.45;46.33
62710;BME280;48770;51.624;5.886;2023-07-31T02:22:47;100822.75;;;24.45;46.55
62710;BME280;48770;51.624;5.886;2023-07-31T02:25:13;100826.34;;;24.45;46.41
62710;BME280;48770;51.624;5.886;2023-07-31T02:27:38;100821.13;;;24.44;46.20
62710;BME280;48770;51.624;5.886;2023-07-31T02:30:03;100827.53;;;24.44;46.48
62710;BME280;48770;51.624;5.886;2023-07-31T02:32:29;100822.75;;;24.45;46.45
62710;BME280;48770;51.624;5.886;2023-07-31T02:34:54;100821.94;;;24.44;46.39
62710;BME280;48770;51.624;5.886;2023-07-31T02:37:19;100818.34;;;24.44;46.11
62710;BME280;48770;51.624;5.886;2023-07-31T02:39:45;100813.94;;;24.43;46.14
62710;BME280;48770;51.624;5.886;2023-07-31T02:42:10;100811.94;;;24.43;46.24
62710;BME280;48770;51.624;5.886;2023-07-31T02:44:35;100809.16;;;24.43;46.49
62710;BME280;48770;51.624;5.886;2023-07-31T02:47:01;100823.13;;;24.43;46.31
62710;BME280;48770;51.624;5.886;2023-07-31T02:49:26;100819.53;;;24.43;46.04
62710;BME280;48770;51.624;5.886;2023-07-31T02:51:51;100815.94;;;24.42;46.13
62710;BME280;48770;51.624;5.886;2023-07-31T02:54:16;100818.72;;;24.42;46.06
62710;BME280;48770;51.624;5.886;2023-07-31T02:56:42;100819.91;;;24.41;46.22
62710;BME280;48770;51.624;5.886;2023-07-31T02:59:07;100810.72;;;24.41;46.33
62710;BME280;48770;51.624;5.886;2023-07-31T03:01:32;100812.31;;;24.42;45.94
62710;BME280;48770;51.624;5.886;2023-07-31T03:03:58;100809.53;;;24.42;46.09
62710;BME280;48770;51.624;5.886;2023-07-31T03:06:23;100803.13;;;24.41;46.44
62710;BME280;48770;51.624;5.886;2023-07-31T03:08:48;100803.94;;;24.42;46.19
62710;BME280;48770;51.624;5.886;2023-07-31T03:11:13;100804.31;;;24.40;46.07
62710;BME280;48770;51.624;5.886;2023-07-31T03:13:39;100799.91;;;24.39;45.96
62710;BME280;48770;51.624;5.886;2023-07-31T03:16:04;100801.53;;;24.40;46.00
62710;BME280;48770;51.624;5.886;2023-07-31T03:18:29;100805.50;;;24.39;46.20
62710;BME280;48770;51.624;5.886;2023-07-31T03:20:54;100800.72;;;24.40;46.21
62710;BME280;48770;51.624;5.886;2023-07-31T03:23:20;100806.31;;;24.40;46.10
62710;BME280;48770;51.624;5.886;2023-07-31T03:25:58;100804.69;;;24.39;46.43
62710;BME280;48770;51.624;5.886;2023-07-31T03:28:24;100809.09;;;24.40;46.03
62710;BME280;48770;51.624;5.886;2023-07-31T03:30:50;100808.31;;;24.39;46.34
62710;BME280;48770;51.624;5.886;2023-07-31T03:33:15;100803.53;;;24.40;46.28
62710;BME280;48770;51.624;5.886;2023-07-31T03:35:41;100811.09;;;24.39;46.38
62710;BME280;48770;51.624;5.886;2023-07-31T03:38:06;100811.91;;;24.40;46.11
62710;BME280;48770;51.624;5.886;2023-07-31T03:40:31;100815.88;;;24.39;45.96
62710;BME280;48770;51.624;5.886;2023-07-31T03:42:56;100810.28;;;24.39;46.14
62710;BME280;48770;51.624;5.886;2023-07-31T03:45:22;100795.50;;;24.38;46.47
62710;BME280;48770;51.624;5.886;2023-07-31T03:47:47;100804.69;;;24.39;46.13
62710;BME280;48770;51.624;5.886;2023-07-31T03:50:12;100792.72;;;24.38;45.90
62710;BME280;48770;51.624;5.886;2023-07-31T03:52:38;100781.53;;;24.38;46.23
62710;BME280;48770;51.624;5.886;2023-07-31T03:55:03;100780.72;;;24.38;45.98
62710;BME280;48770;51.624;5.886;2023-07-31T03:57:29;100778.75;;;24.38;46.01
62710;BME280;48770;51.624;5.886;2023-07-31T03:59:54;100779.13;;;24.37;46.35
62710;BME280;48770;51.624;5.886;2023-07-31T04:02:19;100776.31;;;24.37;46.31
62710;BME280;48770;51.624;5.886;2023-07-31T04:04:45;100770.75;;;24.37;46.54
62710;BME280;48770;51.624;5.886;2023-07-31T04:07:10;100773.91;;;24.35;46.16
62710;BME280;48770;51.624;5.886;2023-07-31T04:09:35;100769.13;;;24.36;46.40
62710;BME280;48770;51.624;5.886;2023-07-31T04:12:00;100762.34;;;24.37;46.34
62710;BME280;48770;51.624;5.886;2023-07-31T04:14:26;100769.13;;;24.36;46.28
62710;BME280;48770;51.624;5.886;2023-07-31T04:16:51;100759.13;;;24.35;46.05
62710;BME280;48770;51.624;5.886;2023-07-31T04:19:17;100760.75;;;24.36;45.74
62710;BME280;48770;51.624;5.886;2023-07-31T04:21:42;100760.75;;;24.36;46.50
62710;BME280;48770;51.624;5.886;2023-07-31T04:24:07;100770.31;;;24.35;46.13
62710;BME280;48770;51.624;5.886;2023-07-31T04:26:33;100760.31;;;24.34;45.82
62710;BME280;48770;51.624;5.886;2023-07-31T04:28:58;100759.13;;;24.35;45.91
62710;BME280;48770;51.624;5.886;2023-07-31T04:31:23;100760.75;;;24.36;46.40
62710;BME280;48770;51.624;5.886;2023-07-31T04:33:49;100752.75;;;24.34;46.17
62710;BME280;48770;51.624;5.886;2023-07-31T04:36:14;100751.94;;;24.34;46.39
62710;BME280;48770;51.624;5.886;2023-07-31T04:38:39;100756.34;;;24.35;45.61
62710;BME280;48770;51.624;5.886;2023-07-31T04:41:06;100756.34;;;24.35;46.31
62710;BME280;48770;51.624;5.886;2023-07-31T04:43:31;100751.13;;;24.33;46.10
62710;BME280;48770;51.624;5.886;2023-07-31T04:45:57;100744.75;;;24.33;46.27
62710;BME280;48770;51.624;5.886;2023-07-31T04:48:23;100749.16;;;24.34;46.21
62710;BME280;48770;51.624;5.886;2023-07-31T04:50:48;100742.38;;;24.35;46.06
62710;BME280;48770;51.624;5.886;2023-07-31T04:53:13;100743.56;;;24.34;46.31
62710;BME280;48770;51.624;5.886;2023-07-31T04:55:39;100745.53;;;24.33;46.03
62710;BME280;48770;51.624;5.886;2023-07-31T04:58:04;100740.75;;;24.34;46.41
62710;BME280;48770;51.624;5.886;2023-07-31T05:00:30;100739.16;;;24.33;45.98
62710;BME280;48770;51.624;5.886;2023-07-31T05:02:55;100736.34;;;24.33;45.92
62710;BME280;48770;51.624;5.886;2023-07-31T05:05:20;100733.56;;;24.33;46.10
62710;BME280;48770;51.624;5.886;2023-07-31T05:07:46;100738.34;;;24.32;45.72
62710;BME280;48770;51.624;5.886;2023-07-31T05:10:11;100725.19;;;24.33;46.06
62710;BME280;48770;51.624;5.886;2023-07-31T05:12:36;100729.16;;;24.32;46.27
62710;BME280;48770;51.624;5.886;2023-07-31T05:15:02;100723.56;;;24.32;46.04
62710;BME280;48770;51.624;5.886;2023-07-31T05:17:27;100711.22;;;24.33;45.74
62710;BME280;48770;51.624;5.886;2023-07-31T05:19:52;100714.38;;;24.31;46.40
62710;BME280;48770;51.624;5.886;2023-07-31T05:22:18;100706.81;;;24.32;45.80
62710;BME280;48770;51.624;5.886;2023-07-31T05:24:43;100707.59;;;24.32;46.38
62710;BME280;48770;51.624;5.886;2023-07-31T05:27:08;100706.81;;;24.32;46.09
62710;BME280;48770;51.624;5.886;2023-07-31T05:29:35;100707.59;;;24.32;45.92
62710;BME280;48770;51.624;5.886;2023-07-31T05:32:00;100698.41;;;24.32;45.89
62710;BME280;48770;51.624;5.886;2023-07-31T05:34:25;100692.84;;;24.32;45.80
62710;BME280;48770;51.624;5.886;2023-07-31T05:36:51;100683.66;;;24.31;46.24
62710;BME280;48770;51.624;5.886;2023-07-31T05:39:16;100692.03;;;24.31;46.13
62710;BME280;48770;51.624;5.886;2023-07-31T05:41:41;100697.63;;;24.31;46.35
62710;BME280;48770;51.624;5.886;2023-07-31T05:44:07;100696.81;;;24.31;46.03
62710;BME280;48770;51.624;5.886;2023-07-31T05:46:32;100685.63;;;24.31;45.97
62710;BME280;48770;51.624;5.886;2023-07-31T05:48:58;100706.81;;;24.32;46.04
62710;BME280;48770;51.624;5.886;2023-07-31T05:51:26;100692.84;;;24.32;46.20
62710;BME280;48770;51.624;5.886;2023-07-31T05:53:51;100690.03;;;24.32;45.75
62710;BME280;48770;51.624;5.886;2023-07-31T05:56:16;100681.66;;;24.32;45.75
62710;BME280;48770;51.624;5.886;2023-07-31T05:58:41;100682.84;;;24.31;46.11
62710;BME280;48770;51.624;5.886;2023-07-31T06:01:07;100684.03;;;24.29;45.94
62710;BME280;48770;51.624;5.886;2023-07-31T06:03:32;100684.84;;;24.30;46.39
62710;BME280;48770;51.624;5.886;2023-07-31T06:05:57;100695.22;;;24.29;46.32
62710;BME280;48770;51.624;5.886;2023-07-31T06:08:22;100680.44;;;24.29;46.21
62710;BME280;48770;51.624;5.886;2023-07-31T06:10:48;100682.84;;;24.31;45.86
62710;BME280;48770;51.624;5.886;2023-07-31T06:13:13;100679.25;;;24.30;45.86
62710;BME280;48770;51.624;5.886;2023-07-31T06:15:38;100668.06;;;24.30;46.09
62710;BME280;48770;51.624;5.886;2023-07-31T06:18:04;100672.03;;;24.29;45.90
62710;BME280;48770;51.624;5.886;2023-07-31T06:20:33;100672.84;;;24.29;46.27
62710;BME280;48770;51.624;5.886;2023-07-31T06:22:58;100676.44;;;24.30;46.26
62710;BME280;48770;51.624;5.886;2023-07-31T06:25:24;100666.47;;;24.29;46.02
62710;BME280;48770;51.624;5.886;2023-07-31T06:27:49;100673.66;;;24.30;46.02
62710;BME280;48770;51.624;5.886;2023-07-31T06:30:15;100666.47;;;24.29;45.78
62710;BME280;48770;51.624;5.886;2023-07-31T06:32:40;100662.88;;;24.28;46.10
62710;BME280;48770;51.624;5.886;2023-07-31T06:35:06;100658.88;;;24.29;46.22
62710;BME280;48770;51.624;5.886;2023-07-31T06:37:31;100657.28;;;24.28;46.02
62710;BME280;48770;51.624;5.886;2023-07-31T06:39:57;100653.28;;;24.29;45.88
62710;BME280;48770;51.624;5.886;2023-07-31T06:42:22;100644.09;;;24.29;45.93
62710;BME280;48770;51.624;5.886;2023-07-31T06:44:47;100644.91;;;24.29;46.14
62710;BME280;48770;51.624;5.886;2023-07-31T06:47:13;100646.91;;;24.29;46.35
62710;BME280;48770;51.624;5.886;2023-07-31T06:49:38;100641.66;;;24.27;45.84
62710;BME280;48770;51.624;5.886;2023-07-31T06:52:04;100637.72;;;24.28;45.87
62710;BME280;48770;51.624;5.886;2023-07-31T06:54:29;100632.13;;;24.28;46.04
62710;BME280;48770;51.624;5.886;2023-07-31T06:56:54;100626.53;;;24.28;46.15
62710;BME280;48770;51.624;5.886;2023-07-31T06:59:20;100624.53;;;24.29;46.14
62710;BME280;48770;51.624;5.886;2023-07-31T07:01:45;100616.50;;;24.27;46.22
62710;BME280;48770;51.624;5.886;2023-07-31T07:04:10;100619.75;;;24.29;45.94
62710;BME280;48770;51.624;5.886;2023-07-31T07:06:36;100624.16;;;24.31;45.76
62710;BME280;48770;51.624;5.886;2023-07-31T07:09:01;100621.38;;;24.31;46.13
62710;BME280;48770;51.624;5.886;2023-07-31T07:11:27;100611.78;;;24.32;45.96
62710;BME280;48770;51.624;5.886;2023-07-31T07:13:52;100619.38;;;24.31;45.67
62710;BME280;48770;51.624;5.886;2023-07-31T07:16:19;100610.19;;;24.31;46.19
62710;BME280;48770;51.624;5.886;2023-07-31T07:18:44;100619.38;;;24.31;46.00
62710;BME280;48770;51.624;5.886;2023-07-31T07:21:09;100616.59;;;24.31;46.01
62710;BME280;48770;51.624;5.886;2023-07-31T07:23:35;100618.19;;;24.32;46.02
62710;BME280;48770;51.624;5.886;2023-07-31T07:26:00;100612.19;;;24.30;46.25
62710;BME280;48770;51.624;5.886;2023-07-31T07:28:25;100618.56;;;24.31;45.82
62710;BME280;48770;51.624;5.886;2023-07-31T07:30:53;100610.56;;;24.29;45.72
62710;BME280;48770;51.624;5.886;2023-07-31T07:33:19;100604.59;;;24.31;46.05
62710;BME280;48770;51.624;5.886;2023-07-31T07:35:44;100613.78;;;24.31;46.13
62710;BME280;48770;51.624;5.886;2023-07-31T07:38:10;100614.59;;;24.32;46.08
62710;BME280;48770;51.624;5.886;2023-07-31T07:40:39;100613.00;;;24.31;46.08
62710;BME280;48770;51.624;5.886;2023-07-31T07:43:04;100617.38;;;24.32;45.75
62710;BME280;48770;51.624;5.886;2023-07-31T07:45:30;100614.59;;;24.32;45.90
62710;BME280;48770;51.624;5.886;2023-07-31T07:47:55;100610.19;;;24.31;46.15
62710;BME280;48770;51.624;5.886;2023-07-31T07:50:20;100611.78;;;24.32;46.20
62710;BME280;48770;51.624;5.886;2023-07-31T07:52:45;100608.19;;;24.31;46.15
62710;BME280;48770;51.624;5.886;2023-07-31T07:55:11;100607.41;;;24.31;46.12
62710;BME280;48770;51.624;5.886;2023-07-31T07:57:36;100599.00;;;24.31;45.99
62710;BME280;48770;51.624;5.886;2023-07-31T08:00:02;100604.22;;;24.32;46.00
62710;BME280;48770;51.624;5.886;2023-07-31T08:02:27;100609.00;;;24.32;45.98
62710;BME280;48770;51.624;5.886;2023-07-31T08:04:52;100597.81;;;24.32;45.84
62710;BME280;48770;51.624;5.886;2023-07-31T08:07:18;100601.00;;;24.30;45.75
62710;BME280;48770;51.624;5.886;2023-07-31T08:09:43;100599.00;;;24.31;45.79
62710;BME280;48770;51.624;5.886;2023-07-31T08:12:08;100593.44;;;24.31;46.01
62710;BME280;48770;51.624;5.886;2023-07-31T08:14:34;100598.22;;;24.30;46.25
62710;BME280;48770;51.624;5.886;2023-07-31T08:17:02;100606.22;;;24.32;46.12
62710;BME280;48770;51.624;5.886;2023-07-31T08:19:27;100593.44;;;24.31;46.28
62710;BME280;48770;51.624;5.886;2023-07-31T08:21:52;100609.00;;;24.32;46.22
62710;BME280;48770;51.624;5.886;2023-07-31T08:24:18;100604.59;;;24.31;45.95
62710;BME280;48770;51.624;5.886;2023-07-31T08:26:43;100601.81;;;24.31;46.27
62710;BME280;48770;51.624;5.886;2023-07-31T08:29:08;100601.81;;;24.31;45.88
62710;BME280;48770;51.624;5.886;2023-07-31T08:31:34;100589.03;;;24.29;46.24
62710;BME280;48770;51.624;5.886;2023-07-31T08:34:00;100592.25;;;24.32;46.01
62710;BME280;48770;51.624;5.886;2023-07-31T08:36:26;100592.25;;;24.32;46.00
62710;BME280;48770;51.624;5.886;2023-07-31T08:38:51;100589.44;;;24.32;45.81
62710;BME280;48770;51.624;5.886;2023-07-31T08:41:16;100593.44;;;24.31;46.03
62710;BME280;48770;51.624;5.886;2023-07-31T08:43:44;100591.44;;;24.31;46.24
62710;BME280;48770;51.624;5.886;2023-07-31T08:46:09;100596.22;;;24.31;46.01
62710;BME280;48770;51.624;5.886;2023-07-31T08:48:35;100597.81;;;24.32;45.88
62710;BME280;48770;51.624;5.886;2023-07-31T08:51:02;100595.84;;;24.32;46.05
62710;BME280;48770;51.624;5.886;2023-07-31T08:53:27;100592.25;;;24.32;46.11
62710;BME280;48770;51.624;5.886;2023-07-31T08:55:53;100597.81;;;24.32;46.20
62710;BME280;48770;51.624;5.886;2023-07-31T08:58:19;100593.84;;;24.33;46.33
62710;BME280;48770;51.624;5.886;2023-07-31T09:00:46;100607.00;;;24.32;45.85
62710;BME280;48770;51.624;5.886;2023-07-31T09:03:17;100600.63;;;24.32;45.95
62710;BME280;48770;51.624;5.886;2023-07-31T09:05:45;100596.63;;;24.33;45.94
62710;BME280;48770;51.624;5.886;2023-07-31T09:08:12;100595.44;;;24.34;46.00
62710;BME280;48770;51.624;5.886;2023-07-31T09:10:44;100591.84;;;24.33;46.23
62710;BME280;48770;51.624;5.886;2023-07-31T09:13:16;100594.66;;;24.33;46.70
62710;BME280;48770;51.624;5.886;2023-07-31T09:15:43;100601.03;;;24.34;46.80
62710;BME280;48770;51.624;5.886;2023-07-31T09:18:10;100599.06;;;24.34;46.73
62710;BME280;48770;51.624;5.886;2023-07-31T09:20:35;100588.25;;;24.33;47.20
62710;BME280;48770;51.624;5.886;2023-07-31T09:23:12;100590.25;;;24.32;47.20
62710;BME280;48770;51.624;5.886;2023-07-31T09:25:39;100593.84;;;24.33;47.32
62710;BME280;48770;51.624;5.886;2023-07-31T09:28:07;100586.25;;;24.33;47.17
62710;BME280;48770;51.624;5.886;2023-07-31T09:30:46;100584.66;;;24.32;47.52
62710;BME280;48770;51.624;5.886;2023-07-31T09:33:12;100573.88;;;24.31;47.52
62710;BME280;48770;51.624;5.886;2023-07-31T09:35:37;100575.47;;;24.32;47.73
62710;BME280;48770;51.624;5.886;2023-07-31T09:38:06;100579.06;;;24.32;47.77
62710;BME280;48770;51.624;5.886;2023-07-31T09:40:36;100569.88;;;24.32;47.85
62710;BME280;48770;51.624;5.886;2023-07-31T09:43:04;100567.91;;;24.32;47.67
62710;BME280;48770;51.624;5.886;2023-07-31T09:45:35;100565.91;;;24.33;47.64
62710;BME280;48770;51.624;5.886;2023-07-31T09:48:03;100562.69;;;24.31;47.67
62710;BME280;48770;51.624;5.886;2023-07-31T09:50:31;100560.31;;;24.33;47.89
62710;BME280;48770;51.624;5.886;2023-07-31T09:52:56;100569.88;;;24.32;47.51
62710;BME280;48770;51.624;5.886;2023-07-31T09:55:22;100563.50;;;24.31;47.71
62710;BME280;48770;51.624;5.886;2023-07-31T09:57:48;100565.09;;;24.32;47.86
62710;BME280;48770;51.624;5.886;2023-07-31T10:00:16;100571.50;;;24.33;47.84
62710;BME280;48770;51.624;5.886;2023-07-31T10:02:45;100566.72;;;24.33;47.52
62710;BME280;48770;51.624;5.886;2023-07-31T10:05:13;100571.50;;;24.33;47.95
62710;BME280;48770;51.624;5.886;2023-07-31T10:07:41;100565.09;;;24.32;47.69
62710;BME280;48770;51.624;5.886;2023-07-31T10:10:08;100564.28;;;24.32;47.84
62710;BME280;48770;51.624;5.886;2023-07-31T10:12:34;100569.09;;;24.31;48.11
62710;BME280;48770;51.624;5.886;2023-07-31T10:15:01;100562.69;;;24.31;48.50
62710;BME280;48770;51.624;5.886;2023-07-31T10:17:29;100561.13;;;24.33;48.42
62710;BME280;48770;51.624;5.886;2023-07-31T10:19:56;100568.69;;;24.33;48.31
62710;BME280;48770;51.624;5.886;2023-07-31T10:22:22;100565.91;;;24.33;48.34
62710;BME280;48770;51.624;5.886;2023-07-31T10:24:48;100567.50;;;24.34;48.21
62710;BME280;48770;51.624;5.886;2023-07-31T10:27:15;100557.13;;;24.34;47.89
62710;BME280;48770;51.624;5.886;2023-07-31T10:29:43;100565.53;;;24.34;48.15
62710;BME280;48770;51.624;5.886;2023-07-31T10:32:09;100561.91;;;24.34;47.88
62710;BME280;48770;51.624;5.886;2023-07-31T10:34:38;100560.72;;;24.35;48.15
62710;BME280;48770;51.624;5.886;2023-07-31T10:40:05;100556.72;;;24.32;47.89
62710;BME280;48770;51.624;5.886;2023-07-31T10:42:36;100560.31;;;24.33;48.18
62710;BME280;48770;51.624;5.886;2023-07-31T10:45:06;100545.97;;;24.34;48.08
62710;BME280;48770;51.624;5.886;2023-07-31T10:47:42;100559.94;;;24.34;48.16
62710;BME280;48770;51.624;5.886;2023-07-31T10:50:22;100541.94;;;24.32;48.21
62710;BME280;48770;51.624;5.886;2023-07-31T10:52:49;100547.94;;;24.34;48.19
62710;BME280;48770;51.624;5.886;2023-07-31T10:57:44;100551.16;;;24.36;48.59
62710;BME280;48770;51.624;5.886;2023-07-31T11:00:29;100546.75;;;24.35;48.33
62710;BME280;48770;51.624;5.886;2023-07-31T11:02:59;100547.56;;;24.35;48.53
62710;BME280;48770;51.624;5.886;2023-07-31T11:08:23;100534.78;;;24.34;48.14
62710;BME280;48770;51.624;5.886;2023-07-31T11:13:26;100531.97;;;24.34;48.48
62710;BME280;48770;51.624;5.886;2023-07-31T11:15:51;100541.16;;;24.35;48.63
62710;BME280;48770;51.624;5.886;2023-07-31T11:18:16;100540.38;;;24.34;48.49
62710;BME280;48770;51.624;5.886;2023-07-31T11:20:43;100538.00;;;24.36;48.54
62710;BME280;48770;51.624;5.886;2023-07-31T11:23:09;100549.16;;;24.36;48.14
62710;BME280;48770;51.624;5.886;2023-07-31T11:25:35;100538.00;;;24.36;48.60
62710;BME280;48770;51.624;5.886;2023-07-31T11:28:05;100535.63;;;24.38;48.52
62710;BME280;48770;51.624;5.886;2023-07-31T11:30:31;100536.81;;;24.37;48.52
62710;BME280;48770;51.624;5.886;2023-07-31T11:32:57;100538.41;;;24.38;48.38
62710;BME280;48770;51.624;5.886;2023-07-31T11:35:22;100533.63;;;24.39;48.46
62710;BME280;48770;51.624;5.886;2023-07-31T11:37:48;100529.63;;;24.40;48.64
62710;BME280;48770;51.624;5.886;2023-07-31T11:40:14;100528.44;;;24.41;48.63
62710;BME280;48770;51.624;5.886;2023-07-31T11:42:39;100533.22;;;24.40;48.79
62710;BME280;48770;51.624;5.886;2023-07-31T11:45:06;100532.84;;;24.42;48.55
62710;BME280;48770;51.624;5.886;2023-07-31T11:47:33;100535.66;;;24.42;48.61
62710;BME280;48770;51.624;5.886;2023-07-31T11:50:00;100535.66;;;24.42;48.46
62710;BME280;48770;51.624;5.886;2023-07-31T11:52:31;100536.44;;;24.42;48.78
62710;BME280;48770;51.624;5.886;2023-07-31T11:54:57;100521.66;;;24.42;48.65
62710;BME280;48770;51.624;5.886;2023-07-31T11:57:24;100516.50;;;24.44;48.72
62710;BME280;48770;51.624;5.886;2023-07-31T11:59:50;100506.13;;;24.44;48.87
62710;BME280;48770;51.624;5.886;2023-07-31T12:02:18;100511.72;;;24.44;48.67
62710;BME280;48770;51.624;5.886;2023-07-31T12:04:43;100508.91;;;24.44;48.32
62710;BME280;48770;51.624;5.886;2023-07-31T12:07:10;100515.31;;;24.45;48.38
62710;BME280;48770;51.624;5.886;2023-07-31T12:09:35;100522.88;;;24.44;48.48
62710;BME280;48770;51.624;5.886;2023-07-31T12:12:00;100516.50;;;24.44;48.74
62710;BME280;48770;51.624;5.886;2023-07-31T12:14:27;100524.50;;;24.45;48.26
62710;BME280;48770;51.624;5.886;2023-07-31T12:16:58;100511.72;;;24.44;48.74
62710;BME280;48770;51.624;5.886;2023-07-31T12:19:27;100520.09;;;24.44;48.57
62710;BME280;48770;51.624;5.886;2023-07-31T12:21:55;100522.09;;;24.44;48.43
62710;BME280;48770;51.624;5.886;2023-07-31T12:24:20;100530.47;;;24.44;48.45
62710;BME280;48770;51.624;5.886;2023-07-31T12:26:46;100529.66;;;24.43;48.44
62710;BME280;48770;51.624;5.886;2023-07-31T12:29:14;100520.47;;;24.43;48.96
62710;BME280;48770;51.624;5.886;2023-07-31T12:31:41;100532.47;;;24.43;48.65
62710;BME280;48770;51.624;5.886;2023-07-31T12:34:15;100526.88;;;24.43;48.66
62710;BME280;48770;51.624;5.886;2023-07-31T12:36:42;100523.28;;;24.43;48.48
62710;BME280;48770;51.624;5.886;2023-07-31T12:39:07;100509.31;;;24.43;48.39
62710;BME280;48770;51.624;5.886;2023-07-31T12:41:33;100506.50;;;24.43;48.84
62710;BME280;48770;51.624;5.886;2023-07-31T12:43:58;100505.31;;;24.44;48.55
62710;BME280;48770;51.624;5.886;2023-07-31T12:46:23;100505.31;;;24.44;48.46
62710;BME280;48770;51.624;5.886;2023-07-31T12:48:49;100504.94;;;24.45;48.53
62710;BME280;48770;51.624;5.886;2023-07-31T12:51:14;100497.34;;;24.46;48.38
62710;BME280;48770;51.624;5.886;2023-07-31T12:53:39;100490.16;;;24.45;48.34
62710;BME280;48770;51.624;5.886;2023-07-31T12:56:05;100490.16;;;24.45;48.36
62710;BME280;48770;51.624;5.886;2023-07-31T12:58:30;100483.75;;;24.44;48.51
62710;BME280;48770;51.624;5.886;2023-07-31T13:00:55;100491.34;;;24.44;48.49